Terminal Aerodrome Forecast
Issued by NWS

Home | Current Version | Previous Version | Text Only | Print | Product List | Glossary On
Versions: 1 2 3 4 5 6 7 8 9 10 11 12 13 14 15 16 17 18 19 20
000
FTUS41 KALY 301700
TAFPSF
TAF
KPSF 301727Z 3018/3118 32010G18KT P6SM BKN045
     FM310000 32006KT P6SM SCT045
     FM310500 VRB03KT P6SM SKC
     FM311500 05005KT P6SM SCT050 BKN150=

USA.gov is the U.S. government's official web portal to all federal, state and local government web resources and services.